Time;durP1;ratioP1;P1;durP2;ratioP2;P2;SDS_P1;SDS_P2;PMS_P1;PMS_P2;Temp;Humidity;BMP_temperature;BMP_pressure;BME280_temperature;BME280_humidity;BME280_pressure;Samples;Min_cycle;Max_cycle;Signal;HPM_P1;HPM_P2
2021/04/13 00:02:27;;;;;;;;;23.50;23.50;;;;;28.77;56.59;98968.75;4990349;28;8836;-73
2021/04/13 00:05:08;;;;;;;;;17.75;17.75;;;;;28.80;56.80;98973.44;4978511;28;8947;-73
2021/04/13 00:07:39;;;;;;;;;20.00;19.50;;;;;28.82;56.05;98969.19;4980065;28;8910;-74
2021/04/13 00:10:14;;;;;;;;;19.75;19.25;;;;;28.80;56.44;98973.44;4990715;28;8824;-73
2021/04/13 00:12:42;;;;;;;;;18.75;18.75;;;;;28.66;55.98;98949.72;4989006;28;8844;-72
2021/04/13 00:15:25;;;;;;;;;18.25;18.25;;;;;28.85;55.55;98990.16;4972296;28;8843;-72
2021/04/13 00:17:55;;;;;;;;;21.00;19.50;;;;;28.86;55.29;98988.22;4987730;28;8844;-73
2021/04/13 00:20:41;;;;;;;;;20.25;18.50;;;;;28.80;56.35;98981.56;4988175;28;8853;-72
2021/04/13 00:23:10;;;;;;;;;17.75;17.75;;;;;28.82;55.63;98990.91;4984830;28;8836;-73
2021/04/13 00:25:45;;;;;;;;;19.25;19.25;;;;;28.87;56.45;99004.13;4976636;28;8945;-72
2021/04/13 00:28:19;;;;;;;;;13.50;13.50;;;;;28.87;56.18;98998.69;4980459;28;8850;-73
2021/04/13 00:30:51;;;;;;;;;19.75;19.00;;;;;28.84;56.22;98993.25;4979658;28;8912;-75
2021/04/13 00:33:26;;;;;;;;;20.00;20.00;;;;;28.95;56.40;99006.88;4981866;28;8846;-73
2021/04/13 00:36:08;;;;;;;;;19.00;18.00;;;;;28.88;54.67;98994.03;4981296;28;8873;-73
2021/04/13 00:38:36;;;;;;;;;17.25;17.25;;;;;29.00;55.75;99011.94;4987716;28;8952;-72
2021/04/13 00:41:20;;;;;;;;;14.50;14.50;;;;;29.02;56.09;99013.09;4986051;28;8860;-73
2021/04/13 00:43:53;;;;;;;;;19.50;19.50;;;;;29.05;56.58;99025.13;4986742;28;8884;-74
2021/04/13 00:46:26;;;;;;;;;18.25;18.25;;;;;29.07;56.08;99020.09;4980138;28;8866;-73
2021/04/13 00:49:00;;;;;;;;;17.75;17.75;;;;;28.96;55.44;99011.16;4982286;28;8854;-72
2021/04/13 00:51:42;;;;;;;;;17.00;17.00;;;;;29.12;56.19;99033.31;4981152;28;8840;-73
2021/04/13 00:54:30;;;;;;;;;16.75;16.00;;;;;29.18;54.80;99050.81;4976587;28;8846;-73
2021/04/13 00:57:16;;;;;;;;;20.00;20.00;;;;;29.19;55.53;99033.34;4978014;28;8912;-72
2021/04/13 00:59:47;;;;;;;;;15.25;15.25;;;;;29.19;54.44;99034.13;4980075;28;8978;-71
2021/04/13 01:02:23;;;;;;;;;18.00;18.00;;;;;29.26;54.27;99032.59;4980976;28;8851;-72
2021/04/13 01:05:07;;;;;;;;;17.25;17.25;;;;;29.39;53.87;99048.13;4984559;28;9006;-71
2021/04/13 01:07:40;;;;;;;;;13.50;13.50;;;;;29.35;54.46;99046.56;4985212;28;8906;-72
2021/04/13 01:10:13;;;;;;;;;16.00;13.75;;;;;29.43;53.92;99046.25;4963778;28;8944;-72
2021/04/13 01:12:48;;;;;;;;;19.00;18.25;;;;;29.55;54.56;99058.69;4965648;28;8914;-72
2021/04/13 01:15:18;;;;;;;;;17.25;16.00;;;;;29.60;53.15;99058.31;4981379;28;8850;-73
2021/04/13 01:17:46;;;;;;;;;29.75;28.75;;;;;29.59;54.03;99056.75;4976574;28;8846;-72
2021/04/13 01:20:36;;;;;;;;;16.25;16.25;;;;;29.61;53.46;99051.72;4973460;28;8869;-72
2021/04/13 01:25:36;;;;;;;;;19.00;19.00;;;;;29.72;53.63;99073.47;4993724;28;8856;-72
2021/04/13 01:28:07;;;;;;;;;16.00;16.00;;;;;29.75;53.04;99078.91;4993257;28;9011;-72
2021/04/13 01:30:58;;;;;;;;;15.50;15.50;;;;;29.79;54.37;99082.41;4973648;28;8901;-71
2021/04/13 01:33:44;;;;;;;;;18.00;18.00;;;;;29.85;53.24;99082.81;4974130;28;8854;-71
2021/04/13 01:36:27;;;;;;;;;16.50;16.50;;;;;29.91;53.91;99096.78;4974197;28;9588;-72
2021/04/13 01:39:06;;;;;;;;;8.25;7.50;;;;;29.95;53.95;99103.78;4974275;28;8945;-71
2021/04/13 01:41:56;;;;;;;;;17.50;17.50;;;;;30.00;53.87;99097.19;4974157;28;8881;-71
2021/04/13 01:44:33;;;;;;;;;10.75;10.75;;;;;30.01;53.93;99094.09;4974393;28;8882;-71
2021/04/13 01:47:04;;;;;;;;;16.75;16.25;;;;;30.04;54.18;99089.81;4975141;28;8961;-72
2021/04/13 01:49:40;;;;;;;;;16.00;14.00;;;;;30.04;53.58;99085.16;4972293;28;8854;-71
2021/04/13 01:52:12;;;;;;;;;13.75;13.75;;;;;30.12;54.39;99089.44;4973913;28;8940;-71
2021/04/13 01:54:41;;;;;;;;;14.50;14.50;;;;;30.19;52.64;99100.31;4969465;28;9607;-71
2021/04/13 01:57:12;;;;;;;;;16.75;15.00;;;;;30.22;52.41;99101.47;4956736;28;8851;-70
2021/04/13 01:59:52;;;;;;;;;13.50;13.50;;;;;30.23;52.56;99096.81;4987911;28;8926;-71
2021/04/13 02:02:34;;;;;;;;;16.50;16.50;;;;;30.22;53.48;99103.44;4992788;28;8870;-71
2021/04/13 02:05:10;;;;;;;;;14.75;14.75;;;;;30.32;52.92;99108.88;4990701;28;8844;-70
2021/04/13 02:08:02;;;;;;;;;14.50;14.25;;;;;30.16;52.75;99082.06;4988867;28;8844;-70
2021/04/13 02:10:38;;;;;;;;;16.25;16.25;;;;;30.40;53.46;99115.09;4991323;28;8932;-70
2021/04/13 02:13:13;;;;;;;;;14.75;14.75;;;;;30.43;52.47;99112.34;4990979;28;9577;-70
2021/04/13 02:15:49;;;;;;;;;15.75;15.25;;;;;30.42;52.54;99112.75;4988908;28;8862;-71
2021/04/13 02:18:27;;;;;;;;;11.50;11.50;;;;;30.50;52.61;99112.34;4992563;28;8967;-70
2021/04/13 02:20:57;;;;;;;;;12.00;12.00;;;;;30.56;52.87;99106.50;4992518;28;8910;-70
2021/04/13 02:23:29;;;;;;;;;12.75;12.75;;;;;30.62;52.87;99102.25;4993058;28;8836;-71
2021/04/13 02:26:01;;;;;;;;;11.75;11.75;;;;;30.70;53.13;99115.47;4993649;28;8842;-70
2021/04/13 02:28:30;;;;;;;;;11.25;11.00;;;;;30.77;52.19;99112.72;4993208;28;8832;-71
2021/04/13 02:31:08;;;;;;;;;12.00;10.50;;;;;30.81;52.24;99110.00;4991391;28;8866;-70
2021/04/13 02:33:42;;;;;;;;;14.00;14.00;;;;;30.92;52.56;99113.47;4992501;28;8918;-70
2021/04/13 02:36:16;;;;;;;;;14.50;13.50;;;;;31.01;52.07;99119.28;4993438;28;8859;-71
2021/04/13 02:38:51;;;;;;;;;11.25;11.25;;;;;31.08;51.25;99110.28;4993434;28;8867;-71
2021/04/13 02:41:33;;;;;;;;;14.00;12.75;;;;;31.10;51.59;99100.56;4993664;28;8879;-71
2021/04/13 02:44:10;;;;;;;;;9.00;9.00;;;;;31.23;50.91;99117.25;4993701;28;8939;-71
2021/04/13 02:46:40;;;;;;;;;13.75;13.75;;;;;31.20;50.79;99109.91;4993610;28;8847;-70
2021/04/13 02:49:16;;;;;;;;;13.00;13.00;;;;;31.30;50.85;99116.44;4993637;28;8870;-71
2021/04/13 02:52:05;;;;;;;;;11.25;11.25;;;;;31.16;50.40;99086.56;4993151;28;8958;-70
2021/04/13 02:54:41;;;;;;;;;13.75;13.75;;;;;31.37;50.20;99117.19;4990064;28;8853;-70
2021/04/13 02:57:34;;;;;;;;;11.00;11.00;;;;;31.42;50.96;99111.31;4957010;28;8865;-70
2021/04/13 03:00:07;;;;;;;;;14.75;14.25;;;;;31.44;51.08;99108.19;4952876;28;8853;-70
2021/04/13 03:02:57;;;;;;;;;11.50;11.50;;;;;31.53;50.65;99119.44;4954651;28;9684;-70
2021/04/13 03:05:28;;;;;;;;;15.00;15.00;;;;;31.55;50.41;99119.81;4954383;28;8866;-70
2021/04/13 03:07:58;;;;;;;;;3.50;2.75;;;;;31.50;50.07;99101.16;4954491;28;8845;-71
2021/04/13 03:10:31;;;;;;;;;14.50;14.50;;;;;31.52;49.48;99104.25;4954379;28;9709;-71
2021/04/13 03:13:07;;;;;;;;;13.75;13.75;;;;;31.57;49.61;99101.09;4967965;28;8845;-71
2021/04/13 03:15:39;;;;;;;;;14.50;14.50;;;;;31.71;50.15;99116.66;4960539;28;8972;-73
2021/04/13 03:18:14;;;;;;;;;16.25;16.25;;;;;31.82;49.63;99111.13;4960286;28;8839;-72
2021/04/13 03:20:46;;;;;;;;;13.00;13.00;;;;;31.66;49.41;99073.41;4956604;28;8849;-72
2021/04/13 03:23:17;;;;;;;;;14.75;13.75;;;;;31.81;49.69;99093.97;4955684;28;8845;-72
2021/04/13 03:25:54;;;;;;;;;12.50;12.50;;;;;31.94;50.20;99110.66;4973309;28;8877;-73
2021/04/13 03:28:33;;;;;;;;;13.50;13.50;;;;;31.77;49.63;99082.31;4957525;28;8839;-72
2021/04/13 03:31:04;;;;;;;;;15.75;15.75;;;;;31.91;49.49;99100.53;4960534;28;9613;-72
2021/04/13 03:33:35;;;;;;;;;12.75;12.25;;;;;31.91;48.83;99097.81;4960164;28;8889;-72
2021/04/13 03:36:10;;;;;;;;;15.75;15.75;;;;;32.01;48.85;99103.19;4953908;28;8854;-71
2021/04/13 03:38:40;;;;;;;;;13.50;13.50;;;;;32.09;48.82;99095.72;4951205;28;8857;-72
2021/04/13 03:41:15;;;;;;;;;11.25;11.00;;;;;32.07;48.57;99089.88;4950354;28;8862;-72
2021/04/13 03:43:45;;;;;;;;;16.75;15.75;;;;;32.19;49.21;99085.88;4951134;28;8892;-73
2021/04/13 03:46:14;;;;;;;;;18.25;16.50;;;;;32.36;49.20;99104.88;4954671;28;8873;-73
2021/04/13 03:48:49;;;;;;;;;14.25;14.25;;;;;32.38;48.31;99088.84;4958908;28;8854;-72
2021/04/13 03:51:32;;;;;;;;;15.75;15.75;;;;;32.21;48.46;99053.50;4954949;28;8992;-72
2021/04/13 03:54:28;;;;;;;;;13.25;13.25;;;;;32.51;48.11;99083.63;4958521;28;8855;-72
2021/04/13 03:56:59;;;;;;;;;14.50;14.50;;;;;32.49;48.16;99066.91;4954470;28;8848;-73
2021/04/13 03:59:30;;;;;;;;;12.75;12.75;;;;;32.51;48.15;99080.13;4958077;28;8876;-72
2021/04/13 04:01:58;;;;;;;;;14.00;14.00;;;;;32.64;48.43;99079.22;4959864;28;8853;-72
2021/04/13 04:04:33;;;;;;;;;16.25;16.25;;;;;32.58;48.13;99066.41;4964374;28;8853;-72
2021/04/13 04:07:23;;;;;;;;;15.75;15.25;;;;;32.69;48.97;99078.75;4966336;28;8868;-73
2021/04/13 04:09:51;;;;;;;;;17.50;16.50;;;;;32.73;48.70;99073.25;4966867;28;8849;-72
2021/04/13 04:12:31;;;;;;;;;14.50;14.50;;;;;32.79;48.27;99066.19;4967006;28;8869;-72
2021/04/13 04:15:09;;;;;;;;;18.00;18.00;;;;;32.84;48.88;99059.50;4964434;28;8861;-73
2021/04/13 04:17:48;;;;;;;;;17.00;17.00;;;;;32.86;48.67;99060.66;4967416;28;8861;-72
2021/04/13 04:20:19;;;;;;;;;16.75;16.75;;;;;32.82;47.47;99057.19;4965678;28;8862;-72
2021/04/13 04:22:50;;;;;;;;;16.00;16.00;;;;;32.86;48.01;99051.69;4964819;28;8861;-72
2021/04/13 04:25:30;;;;;;;;;16.75;16.75;;;;;32.88;47.89;99046.59;4965007;28;8870;-71
2021/04/13 04:28:06;;;;;;;;;19.25;17.25;;;;;32.87;47.58;99023.16;4965693;28;8850;-72
2021/04/13 04:30:35;;;;;;;;;15.00;14.50;;;;;33.09;48.49;99046.31;4968211;28;8837;-72
2021/04/13 04:33:04;;;;;;;;;13.75;13.50;;;;;33.14;48.02;99034.91;4966240;28;8973;-72
2021/04/13 04:35:37;;;;;;;;;17.25;17.25;;;;;33.16;48.08;99015.38;4964758;28;8869;-72
2021/04/13 04:38:27;;;;;;;;;16.00;16.00;;;;;33.31;48.34;99027.69;4964643;28;8833;-72
2021/04/13 04:41:06;;;;;;;;;13.75;13.75;;;;;33.33;47.72;99022.59;4965068;28;8860;-72
2021/04/13 04:43:41;;;;;;;;;17.00;17.00;;;;;33.31;47.72;99014.78;4963280;28;8905;-72
2021/04/13 04:46:26;;;;;;;;;17.00;16.75;;;;;33.41;47.93;99015.81;4966017;28;8853;-73
2021/04/13 04:49:12;;;;;;;;;17.00;17.00;;;;;33.51;47.80;99003.19;4967207;28;8866;-72
2021/04/13 04:51:41;;;;;;;;;16.50;16.00;;;;;33.46;48.07;98982.53;4964602;28;8846;-72
2021/04/13 04:54:10;;;;;;;;;15.75;15.75;;;;;33.59;47.52;98991.72;4962757;28;9567;-73
2021/04/13 04:56:38;;;;;;;;;16.25;16.25;;;;;33.64;46.82;98983.03;4981790;28;8867;-72
2021/04/13 04:59:07;;;;;;;;;14.75;14.75;;;;;33.67;47.22;98975.94;4986116;28;8864;-72
2021/04/13 05:01:35;;;;;;;;;16.25;16.25;;;;;33.78;46.05;98967.56;4985433;28;8860;-73
2021/04/13 05:04:04;;;;;;;;;3.25;2.75;;;;;33.98;46.94;98982.06;4982589;28;8847;-72
2021/04/13 05:06:36;;;;;;;;;14.50;14.50;;;;;33.94;46.22;98951.25;4985433;28;8983;-72
2021/04/13 05:09:07;;;;;;;;;16.25;16.25;;;;;34.24;45.50;98972.97;4987030;28;8832;-72
2021/04/13 05:11:36;;;;;;;;;17.50;17.50;;;;;34.24;44.38;98945.59;4969715;28;8876;-71
2021/04/13 05:14:04;;;;;;;;;15.50;15.50;;;;;34.46;44.10;98948.72;4985779;28;8865;-71
2021/04/13 05:16:33;;;;;;;;;16.00;16.00;;;;;34.47;44.53;98939.31;4985744;28;8863;-72
2021/04/13 05:19:03;;;;;;;;;15.75;15.75;;;;;34.67;44.06;98947.50;4985836;28;8860;-72
2021/04/13 05:21:31;;;;;;;;;16.50;16.50;;;;;34.78;43.84;98939.06;4968331;28;8835;-72
2021/04/13 05:24:00;;;;;;;;;11.50;11.50;;;;;34.85;43.97;98936.97;4987392;28;8867;-73
2021/04/13 05:26:28;;;;;;;;;14.25;14.25;;;;;34.94;43.87;98917.19;4990369;28;8951;-73
2021/04/13 05:28:57;;;;;;;;;17.50;17.50;;;;;35.05;43.27;98917.72;4973322;28;8832;-72
2021/04/13 05:31:25;;;;;;;;;21.00;20.00;;;;;35.06;44.25;98893.81;4988331;28;8880;-72
2021/04/13 05:33:54;;;;;;;;;14.75;14.75;;;;;34.92;43.74;98849.09;4988495;28;8950;-72
2021/04/13 05:36:22;;;;;;;;;19.25;19.25;;;;;35.12;43.05;98883.84;4971640;28;8832;-72
2021/04/13 05:38:50;;;;;;;;;18.50;18.25;;;;;35.21;43.33;98886.75;4972006;28;8978;-71
2021/04/13 05:41:20;;;;;;;;;19.75;18.25;;;;;35.23;45.79;98878.88;4989497;28;8832;-73
2021/04/13 05:43:49;;;;;;;;;14.75;14.75;;;;;35.21;43.92;98875.78;4989516;28;8840;-72
2021/04/13 05:46:20;;;;;;;;;13.75;13.75;;;;;35.13;45.82;98856.00;4988318;28;8914;-73
2021/04/13 05:48:49;;;;;;;;;16.25;16.25;;;;;35.02;43.60;98852.00;4968017;28;8836;-73
2021/04/13 05:51:18;;;;;;;;;15.00;15.00;;;;;34.95;45.58;98840.00;4988511;28;8856;-71
2021/04/13 05:53:50;;;;;;;;;16.25;16.25;;;;;34.91;46.06;98835.81;4987240;28;8856;-73
2021/04/13 05:56:27;;;;;;;;;15.75;15.75;;;;;34.71;45.96;98800.22;4967806;28;8877;-73
2021/04/13 05:58:56;;;;;;;;;14.75;14.75;;;;;34.85;45.45;98821.84;4987483;28;8835;-72
2021/04/13 06:01:27;;;;;;;;;7.50;7.50;;;;;34.86;44.63;98825.34;4989365;28;8828;-72
2021/04/13 06:03:55;;;;;;;;;13.75;13.75;;;;;34.87;43.91;98813.97;4989426;28;8856;-71
2021/04/13 06:06:24;;;;;;;;;15.00;15.00;;;;;34.91;43.31;98802.91;4970686;28;8840;-73
2021/04/13 06:08:54;;;;;;;;;18.00;17.00;;;;;35.01;44.33;98799.16;4985408;28;8846;-73
2021/04/13 06:11:31;;;;;;;;;16.75;16.00;;;;;35.04;42.70;98787.31;4970678;28;8984;-72
2021/04/13 06:14:04;;;;;;;;;24.00;22.00;;;;;35.07;44.46;98775.50;4977949;28;8850;-73
2021/04/13 06:16:37;;;;;;;;;14.40;14.40;;;;;35.24;42.72;98774.22;4986469;28;8858;-74
2021/04/13 06:19:08;;;;;;;;;14.50;14.50;;;;;35.29;42.60;98776.44;4980965;28;8945;-73
2021/04/13 06:21:37;;;;;;;;;18.00;18.00;;;;;35.24;42.11;98755.03;4982878;28;8906;-71
2021/04/13 06:24:06;;;;;;;;;15.75;15.75;;;;;35.35;44.07;98763.00;4983869;28;8978;-72
2021/04/13 06:26:34;;;;;;;;;17.00;16.50;;;;;35.33;43.88;98759.94;4990912;28;8839;-72
2021/04/13 06:29:04;;;;;;;;;15.75;15.75;;;;;35.26;44.24;98760.84;4973538;28;8971;-72
2021/04/13 06:31:32;;;;;;;;;17.00;16.50;;;;;35.12;43.04;98744.00;4992452;28;8855;-72
2021/04/13 06:34:01;;;;;;;;;18.60;18.60;;;;;35.14;42.04;98744.34;4993282;28;8918;-71
2021/04/13 06:36:31;;;;;;;;;14.20;13.40;;;;;35.25;42.48;98744.84;4992000;28;8840;-72
2021/04/13 06:39:00;;;;;;;;;16.80;16.80;;;;;35.41;42.13;98744.03;4990508;28;8847;-73
2021/04/13 06:41:37;;;;;;;;;17.80;16.60;;;;;35.59;43.93;98736.09;4987631;28;8848;-72
2021/04/13 06:44:12;;;;;;;;;10.20;8.60;;;;;35.72;41.53;98730.63;4978052;28;8814;-74
2021/04/13 06:46:52;;;;;;;;;15.00;15.00;;;;;35.68;44.17;98695.06;4970556;28;8960;-73
2021/04/13 06:49:28;;;;;;;;;16.40;16.40;;;;;35.89;43.86;98707.41;4971992;28;8883;-72
2021/04/13 06:52:10;;;;;;;;;17.50;17.50;;;;;35.85;42.01;98701.25;4972412;28;9769;-72
2021/04/13 06:54:42;;;;;;;;;16.40;16.40;;;;;35.85;43.57;98695.78;4971810;28;8965;-74
2021/04/13 06:57:23;;;;;;;;;15.00;15.00;;;;;35.80;41.32;98683.34;4972963;28;8892;-73
2021/04/13 07:00:01;;;;;;;;;17.00;17.00;;;;;35.80;40.21;98671.63;4972724;28;8857;-72
2021/04/13 07:02:39;;;;;;;;;15.80;15.80;;;;;35.84;41.71;98661.28;4972127;28;8838;-72
2021/04/13 07:05:22;;;;;;;;;14.50;14.50;;;;;35.98;41.73;98660.84;4983559;28;8840;-72
2021/04/13 07:08:00;;;;;;;;;17.80;16.40;;;;;36.07;40.02;98647.22;4985513;28;8968;-72
2021/04/13 07:10:29;;;;;;;;;16.20;16.20;;;;;36.05;39.95;98627.69;4982972;28;9697;-72
2021/04/13 07:13:08;;;;;;;;;14.60;14.60;;;;;36.21;39.10;98640.53;4983014;28;8926;-73
2021/04/13 07:15:51;;;;;;;;;15.75;15.75;;;;;36.25;40.18;98636.44;4983855;28;8848;-72
2021/04/13 07:18:26;;;;;;;;;14.80;14.80;;;;;36.24;40.39;98631.41;4984629;28;8853;-71
2021/04/13 07:21:00;;;;;;;;;12.20;12.20;;;;;36.20;40.51;98628.00;4983124;28;8862;-73
2021/04/13 07:23:34;;;;;;;;;16.00;15.75;;;;;36.17;42.59;98632.41;4983037;28;8866;-72
2021/04/13 07:26:11;;;;;;;;;15.60;15.60;;;;;36.18;39.96;98631.19;4965357;28;8869;-73
2021/04/13 07:28:56;;;;;;;;;15.80;15.80;;;;;36.03;39.74;98610.13;4978493;28;8852;-73
2021/04/13 07:31:52;;;;;;;;;14.60;13.80;;;;;36.10;40.08;98615.38;4983219;28;8835;-72
2021/04/13 07:34:22;;;;;;;;;13.00;13.00;;;;;36.06;40.16;98615.50;4973457;28;8841;-72
2021/04/13 07:37:03;;;;;;;;;16.40;16.40;;;;;36.06;39.80;98614.72;4982658;28;8854;-72
2021/04/13 07:39:33;;;;;;;;;19.60;19.60;;;;;35.94;40.24;98597.81;4978260;28;8878;-72
2021/04/13 07:42:08;;;;;;;;;15.25;15.25;;;;;35.98;39.80;98600.47;4980794;28;8838;-72
2021/04/13 07:45:09;;;;;;;;;18.80;18.80;;;;;35.97;40.80;98600.91;4973372;28;8828;-72
2021/04/13 07:48:02;;;;;;;;;15.20;15.20;;;;;35.92;40.28;98583.78;4989825;28;8870;-72
2021/04/13 07:50:53;;;;;;;;;19.40;17.60;;;;;35.67;41.03;98541.84;4985277;28;8850;-71
2021/04/13 07:53:33;;;;;;;;;15.00;14.50;;;;;35.84;41.47;98576.19;4974494;28;9564;-70
2021/04/13 07:56:07;;;;;;;;;17.75;16.75;;;;;35.84;40.32;98584.44;4978159;28;8885;-72
2021/04/13 07:58:49;;;;;;;;;16.75;16.75;;;;;35.80;41.69;98583.78;4961889;28;8857;-72
2021/04/13 08:01:18;;;;;;;;;20.75;19.25;;;;;35.75;41.68;98570.59;4975828;28;8859;-71
2021/04/13 08:03:46;;;;;;;;;14.75;14.75;;;;;35.77;42.25;98568.16;4978976;28;8972;-72
2021/04/13 08:06:29;;;;;;;;;19.00;19.00;;;;;35.69;42.69;98556.66;4976927;28;8852;-72
2021/04/13 08:09:19;;;;;;;;;18.00;18.00;;;;;35.61;42.61;98547.09;4980888;28;8852;-71
2021/04/13 08:12:18;;;;;;;;;21.75;18.25;;;;;35.50;42.57;98546.66;4983267;28;8858;-73
2021/04/13 08:14:49;;;;;;;;;19.25;17.75;;;;;35.24;42.67;98516.47;4983793;28;8851;-71
2021/04/13 08:17:31;;;;;;;;;15.75;15.75;;;;;35.24;42.26;98537.63;4983151;28;8846;-72
2021/04/13 08:20:05;;;;;;;;;16.00;15.80;;;;;35.01;42.04;98544.19;4987006;28;8852;-71
2021/04/13 08:22:53;;;;;;;;;15.80;15.80;;;;;34.80;41.83;98534.59;4981642;28;8842;-73
2021/04/13 08:25:44;;;;;;;;;21.75;21.75;;;;;34.90;42.64;98563.69;4976060;28;8862;-72
2021/04/13 08:28:21;;;;;;;;;15.20;15.20;;;;;34.81;42.08;98576.50;4982315;28;8856;-74
2021/04/13 08:34:11;;;;;;;;;13.75;13.75;;;;;34.75;42.38;98561.75;4989981;28;9077;-74
2021/04/13 08:36:50;;;;;;;;;11.20;11.20;;;;;34.74;42.35;98546.50;4990856;28;8864;-72
2021/04/13 08:39:25;;;;;;;;;17.75;16.00;;;;;34.75;42.04;98546.06;4986763;28;8840;-73
2021/04/13 08:42:04;;;;;;;;;12.00;12.00;;;;;34.76;41.65;98553.09;4988519;28;8855;-72
2021/04/13 08:44:56;;;;;;;;;17.25;17.25;;;;;34.77;41.80;98556.59;4981746;28;8942;-73
2021/04/13 08:47:49;;;;;;;;;19.75;19.75;;;;;34.75;41.87;98568.00;4964326;28;8860;-72
2021/04/13 08:50:35;;;;;;;;;18.50;18.50;;;;;34.74;42.29;98571.16;4985808;28;8844;-73
2021/04/13 08:53:24;;;;;;;;;20.50;18.50;;;;;34.73;41.58;98555.94;4987174;28;8875;-73
2021/04/13 08:56:10;;;;;;;;;14.00;14.00;;;;;34.47;42.72;98536.66;4986973;28;8927;-72
2021/04/13 08:58:41;;;;;;;;;14.00;14.00;;;;;34.65;42.41;98564.34;4985688;28;8868;-73
2021/04/13 09:01:31;;;;;;;;;18.25;18.25;;;;;34.65;42.58;98567.09;4975182;28;8840;-73
2021/04/13 09:04:00;;;;;;;;;9.80;9.80;;;;;34.60;41.61;98583.28;4988785;28;8852;-74
2021/04/13 09:06:52;;;;;;;;;20.25;18.25;;;;;34.65;42.22;98601.94;4992632;28;8840;-72
2021/04/13 09:09:40;;;;;;;;;14.00;12.80;;;;;34.57;43.68;98595.88;4990980;28;8848;-72
2021/04/13 09:12:18;;;;;;;;;10.80;10.80;;;;;34.40;43.69;98601.81;4991837;28;9002;-71
2021/04/13 09:15:01;;;;;;;;;7.00;7.00;;;;;33.87;43.30;98554.59;4991781;28;8962;-72
2021/04/13 09:18:01;;;;;;;;;8.60;8.60;;;;;33.78;43.84;98585.28;4990585;28;8835;-71
2021/04/13 09:20:47;;;;;;;;;4.80;4.80;;;;;33.36;44.07;98568.63;4991311;28;8836;-72
2021/04/13 09:23:34;;;;;;;;;5.40;5.40;;;;;32.98;44.23;98560.00;4988508;28;8993;-71
2021/04/13 09:26:18;;;;;;;;;4.75;4.75;;;;;32.62;44.64;98562.63;4975056;28;8850;-71
2021/04/13 09:28:55;;;;;;;;;8.00;8.00;;;;;32.41;45.09;98591.13;4985641;28;8864;-72
2021/04/13 09:31:29;;;;;;;;;10.50;10.50;;;;;32.23;45.35;98590.66;4989730;28;8919;-71
2021/04/13 09:34:12;;;;;;;;;7.50;7.00;;;;;32.18;45.33;98580.19;4988398;28;8956;-69
2021/04/13 09:36:46;;;;;;;;;7.00;7.00;;;;;32.12;45.91;98579.13;4989590;28;8871;-70
2021/04/13 09:39:20;;;;;;;;;9.75;8.75;;;;;32.21;46.11;98601.19;4987679;28;8882;-72
2021/04/13 09:42:02;;;;;;;;;9.25;9.25;;;;;32.24;45.69;98605.84;4989879;28;9553;-71
2021/04/13 09:45:02;;;;;;;;;12.25;12.00;;;;;32.17;45.36;98603.19;4990699;28;8938;-70
2021/04/13 09:47:43;;;;;;;;;10.50;10.50;;;;;32.18;45.33;98637.50;4929189;29;8861;-71
2021/04/13 09:50:21;;;;;;;;;11.25;11.25;;;;;32.09;45.41;98653.63;4927420;29;9753;-70
2021/04/13 09:53:03;;;;;;;;;8.50;8.50;;;;;31.94;45.53;98682.28;4928920;29;8900;-71
2021/04/13 09:55:31;;;;;;;;;12.00;12.00;;;;;31.78;45.40;98738.22;4914104;29;8884;-71
2021/04/13 09:58:31;;;;;;;;;11.50;11.50;;;;;31.44;46.24;98749.09;4927415;29;8868;-72
2021/04/13 10:01:15;;;;;;;;;8.25;8.25;;;;;30.80;48.17;98747.00;4927966;29;8885;-72
2021/04/13 10:04:02;;;;;;;;;7.75;7.75;;;;;30.26;49.98;98748.50;4930092;29;8845;-72
2021/04/13 10:06:36;;;;;;;;;8.00;8.00;;;;;29.52;50.71;98689.81;4933832;29;8944;-72
2021/04/13 10:09:13;;;;;;;;;5.00;5.00;;;;;29.44;51.68;98710.03;4934249;29;8977;-71
2021/04/13 10:12:06;;;;;;;;;2.00;2.00;;;;;29.19;52.32;98712.78;4917750;29;8854;-71
2021/04/13 10:14:55;;;;;;;;;5.75;5.75;;;;;29.00;52.17;98718.63;4931354;29;8856;-72
2021/04/13 10:17:35;;;;;;;;;2.00;2.00;;;;;29.03;51.72;98720.56;4919990;28;8851;-71
2021/04/13 10:20:26;;;;;;;;;3.00;3.00;;;;;28.99;50.90;98707.00;4979390;28;8868;-71
2021/04/13 10:23:16;;;;;;;;;5.00;5.00;;;;;29.06;51.16;98690.69;4989780;28;8857;-71
2021/04/13 10:25:56;;;;;;;;;3.50;3.50;;;;;29.16;50.44;98694.53;4975051;28;8936;-71
2021/04/13 10:28:46;;;;;;;;;4.75;4.75;;;;;29.26;49.38;98701.91;4974661;28;8850;-71
2021/04/13 10:31:20;;;;;;;;;5.50;5.50;;;;;29.23;49.04;98703.44;4974190;28;8969;-72
2021/04/13 10:34:14;;;;;;;;;6.00;6.00;;;;;29.16;49.12;98711.63;4982877;28;8834;-72
2021/04/13 10:37:04;;;;;;;;;6.75;6.75;;;;;29.16;49.46;98727.16;4990584;28;8859;-71
2021/04/13 10:39:45;;;;;;;;;5.75;5.75;;;;;29.17;50.32;98747.72;4987235;28;9668;-72
2021/04/13 10:42:37;;;;;;;;;6.75;6.75;;;;;29.27;50.01;98757.00;4986672;28;8867;-72
2021/04/13 10:45:18;;;;;;;;;5.50;5.50;;;;;29.37;47.80;98756.22;4982214;28;8856;-72
2021/04/13 10:48:11;;;;;;;;;3.50;3.50;;;;;29.47;48.66;98747.28;4981282;28;8882;-72
2021/04/13 10:50:54;;;;;;;;;4.00;4.00;;;;;29.49;48.35;98751.16;4980577;28;8840;-71
2021/04/13 10:53:44;;;;;;;;;2.00;2.00;;;;;29.50;47.21;98758.16;4991931;28;8847;-71
2021/04/13 10:56:34;;;;;;;;;5.00;5.00;;;;;29.48;47.54;98765.91;4991496;28;8859;-71
2021/04/13 10:59:15;;;;;;;;;4.75;3.50;;;;;29.53;46.35;98764.75;4991432;28;8850;-71
2021/04/13 11:01:55;;;;;;;;;2.75;2.00;;;;;29.60;47.64;98766.66;4991556;28;8839;-71
2021/04/13 11:04:55;;;;;;;;;3.00;3.00;;;;;29.61;47.36;98758.13;4991420;28;8829;-71
2021/04/13 11:07:48;;;;;;;;;3.00;3.00;;;;;29.61;46.59;98757.34;4974285;28;8972;-71
2021/04/13 11:10:38;;;;;;;;;3.50;2.25;;;;;29.61;47.82;98749.19;4990801;28;8848;-71
2021/04/13 11:13:21;;;;;;;;;3.50;3.50;;;;;29.59;46.97;98746.88;4992026;28;8840;-70
2021/04/13 11:16:06;;;;;;;;;3.00;3.00;;;;;29.55;46.51;98740.66;4986389;28;8932;-71
2021/04/13 11:18:42;;;;;;;;;3.25;3.25;;;;;29.57;47.58;98730.19;4992058;28;8847;-71
2021/04/13 11:21:29;;;;;;;;;3.00;3.00;;;;;29.57;47.67;98732.13;4992253;28;8828;-71
2021/04/13 11:24:29;;;;;;;;;2.75;2.75;;;;;29.47;47.44;98728.25;4990025;28;8824;-71
2021/04/13 11:27:10;;;;;;;;;2.50;2.50;;;;;29.46;47.56;98729.44;4990316;28;8847;-70
2021/04/13 11:30:04;;;;;;;;;3.00;3.00;;;;;29.39;47.48;98722.03;4992682;28;8868;-70
2021/04/13 11:32:54;;;;;;;;;4.00;4.00;;;;;29.37;47.21;98726.31;4992758;28;8902;-70
2021/04/13 11:35:38;;;;;;;;;2.75;2.50;;;;;29.34;47.34;98727.88;4985314;28;8844;-74
2021/04/13 11:38:21;;;;;;;;;2.75;2.75;;;;;29.32;46.99;98735.66;4992852;28;8902;-73
2021/04/13 11:41:12;;;;;;;;;3.75;3.75;;;;;29.35;47.46;98744.97;4990919;28;8968;-70
2021/04/13 11:43:49;;;;;;;;;3.25;3.25;;;;;29.19;47.38;98713.56;4991215;28;8840;-71
2021/04/13 11:46:40;;;;;;;;;3.00;3.00;;;;;29.26;48.58;98733.72;4985148;28;8808;-71
2021/04/13 11:49:12;;;;;;;;;0.00;0.00;;;;;29.37;48.17;98753.50;4988467;28;8832;-72
2021/04/13 11:51:59;;;;;;;;;5.25;5.25;;;;;29.48;48.02;98760.47;4988764;28;8966;-72
2021/04/13 11:54:53;;;;;;;;;4.75;4.75;;;;;29.47;48.11;98769.81;4970294;28;8868;-73
2021/04/13 11:57:23;;;;;;;;;3.00;3.00;;;;;29.52;48.56;98782.22;4987139;28;9753;-74
2021/04/13 12:00:10;;;;;;;;;5.50;5.50;;;;;29.52;48.62;98774.06;4986555;28;8844;-73
2021/04/13 12:02:44;;;;;;;;;4.75;4.75;;;;;29.51;48.94;98781.44;4986848;28;9645;-75
2021/04/13 12:05:37;;;;;;;;;6.25;6.25;;;;;29.52;49.42;98771.34;4970926;28;8855;-74
2021/04/13 12:08:07;;;;;;;;;4.25;4.25;;;;;29.44;49.41;98765.16;4985225;28;8887;-73
2021/04/13 12:10:37;;;;;;;;;3.00;3.00;;;;;29.53;49.36;98779.09;4986660;28;8824;-73
2021/04/13 12:13:09;;;;;;;;;5.50;5.50;;;;;29.48;49.64;98781.44;4987674;28;8875;-73
2021/04/13 12:15:53;;;;;;;;;6.00;6.00;;;;;29.56;50.01;98783.00;4985696;28;8847;-74
2021/04/13 12:18:37;;;;;;;;;6.75;6.00;;;;;29.58;49.68;98785.31;4985878;28;9614;-74
2021/04/13 12:21:20;;;;;;;;;6.25;6.25;;;;;29.58;51.16;98785.31;4986680;28;8840;-74
2021/04/13 12:23:57;;;;;;;;;8.00;8.00;;;;;29.48;51.48;98768.63;4985512;28;8959;-74
2021/04/13 12:26:38;;;;;;;;;8.00;8.00;;;;;29.55;53.30;98778.72;4984411;28;8968;-72